createdAt,value
2023-02-02T00:00:01.290Z,0.50
2023-02-02T00:02:31.398Z,0.70
2023-02-02T00:05:05.305Z,0.70
2023-02-02T00:07:35.022Z,0.50
2023-02-02T00:10:14.958Z,0.73
2023-02-02T00:12:47.789Z,0.50
2023-02-02T00:15:18.197Z,0.60
2023-02-02T00:17:51.834Z,0.40
2023-02-02T00:20:23.038Z,0.60
2023-02-02T00:22:53.367Z,0.80
2023-02-02T00:25:26.812Z,0.50
2023-02-02T00:27:54.277Z,0.50
2023-02-02T00:30:24.685Z,0.60
2023-02-02T00:32:54.057Z,0.60
2023-02-02T00:35:28.768Z,0.50
2023-02-02T00:38:02.256Z,0.40
2023-02-02T00:40:31.680Z,0.50
2023-02-02T00:43:02.941Z,0.60
2023-02-02T00:45:33.067Z,0.70
2023-02-02T00:48:03.063Z,0.50
2023-02-02T00:50:39.609Z,0.80
2023-02-02T00:53:15.888Z,0.45
2023-02-02T00:55:46.356Z,0.60
2023-02-02T00:58:16.299Z,0.50
2023-02-02T01:00:49.752Z,0.68
2023-02-02T01:03:22.620Z,0.60
2023-02-02T01:05:52.028Z,0.50
2023-02-02T01:08:23.160Z,0.57
2023-02-02T01:10:55.936Z,0.50
2023-02-02T01:13:29.043Z,0.43
2023-02-02T01:16:00.120Z,0.60
2023-02-02T01:18:27.952Z,0.40
2023-02-02T01:21:02.575Z,0.50
2023-02-02T01:23:33.264Z,0.60
2023-02-02T01:26:12.988Z,0.50
2023-02-02T01:28:43.658Z,0.50
2023-02-02T01:31:15.083Z,0.50
2023-02-02T01:33:42.654Z,0.60
2023-02-02T01:36:17.738Z,0.52
2023-02-02T01:38:51.719Z,0.60
2023-02-02T01:41:23.561Z,0.68
2023-02-02T01:43:58.092Z,0.50
2023-02-02T01:46:29.275Z,0.65
2023-02-02T01:49:05.003Z,0.50
2023-02-02T01:51:52.255Z,0.70
2023-02-02T01:54:26.891Z,0.60
2023-02-02T01:57:02.818Z,0.57
2023-02-02T01:59:39.602Z,0.50
2023-02-02T02:02:07.520Z,0.60
2023-02-02T02:04:37.844Z,0.50
2023-02-02T02:07:11.286Z,0.50
2023-02-02T02:09:41.453Z,0.40
2023-02-02T02:12:15.943Z,0.60
2023-02-02T02:15:09.571Z,0.43
2023-02-02T02:17:39.379Z,0.40
2023-02-02T02:20:33.791Z,0.52
2023-02-02T02:23:21.980Z,0.50
2023-02-02T02:26:10.086Z,0.60
2023-02-02T02:28:52.798Z,0.50
2023-02-02T02:31:33.164Z,0.50
2023-02-02T02:34:21.821Z,0.70
2023-02-02T02:36:54.128Z,0.50
2023-02-02T02:39:32.814Z,0.80
2023-02-02T02:42:03.199Z,0.50
2023-02-02T02:44:31.855Z,0.43
2023-02-02T02:47:02.264Z,0.52
2023-02-02T02:49:29.933Z,0.80
2023-02-02T02:52:03.214Z,0.90
2023-02-02T02:54:39.306Z,0.77
2023-02-02T02:57:23.858Z,0.50
2023-02-02T03:00:02.551Z,0.40
2023-02-02T03:02:51.179Z,0.47
2023-02-02T03:05:30.690Z,0.60
2023-02-02T03:08:08.357Z,0.52
2023-02-02T03:10:38.827Z,0.50
2023-02-02T03:13:15.916Z,0.60
2023-02-02T03:15:44.492Z,0.40
2023-02-02T03:18:17.552Z,0.50
2023-02-02T03:20:47.928Z,0.60
2023-02-02T03:23:24.964Z,0.40
2023-02-02T03:25:55.269Z,0.40
2023-02-02T03:28:26.625Z,0.43
2023-02-02T03:31:03.605Z,0.50
2023-02-02T03:33:35.298Z,0.60
2023-02-02T03:36:05.613Z,0.50
2023-02-02T03:38:38.408Z,0.50
2023-02-02T03:41:08.819Z,0.45
2023-02-02T03:43:38.893Z,0.60
2023-02-02T03:46:09.390Z,0.60
2023-02-02T03:48:42.972Z,0.40
2023-02-02T03:51:12.103Z,0.70
2023-02-02T03:53:45.849Z,0.65
2023-02-02T03:56:16.320Z,0.60
2023-02-02T03:58:49.896Z,0.40
2023-02-02T04:01:23.019Z,0.55
2023-02-02T04:04:03.781Z,0.52
2023-02-02T04:06:33.622Z,0.50
2023-02-02T04:09:07.183Z,0.50
2023-02-02T04:11:43.253Z,0.47
2023-02-02T04:14:13.174Z,0.70
2023-02-02T04:16:40.410Z,0.60
2023-02-02T04:19:18.873Z,0.60
2023-02-02T04:21:50.935Z,0.60
2023-02-02T04:24:20.786Z,0.80
2023-02-02T04:26:53.007Z,0.60
2023-02-02T04:29:33.862Z,0.50
2023-02-02T04:32:03.504Z,0.52
2023-02-02T04:34:30.500Z,0.50
2023-02-02T04:36:58.893Z,0.50
2023-02-02T04:39:35.449Z,0.70
2023-02-02T04:42:05.002Z,0.70
2023-02-02T04:44:32.733Z,0.55
2023-02-02T04:47:06.544Z,0.82
2023-02-02T04:49:33.742Z,0.50
2023-02-02T04:52:09.335Z,0.60
2023-02-02T04:54:42.561Z,0.50
2023-02-02T04:57:13.174Z,0.45
2023-02-02T04:59:43.267Z,0.50
2023-02-02T05:02:13.810Z,0.70
2023-02-02T05:04:47.503Z,0.60
2023-02-02T05:07:46.839Z,0.52
2023-02-02T05:10:17.338Z,0.47
2023-02-02T05:12:53.912Z,0.60
2023-02-02T05:15:23.821Z,0.60
2023-02-02T05:17:54.051Z,0.60
2023-02-02T05:20:43.862Z,0.50
2023-02-02T05:23:14.131Z,0.75
2023-02-02T05:25:41.229Z,0.75
2023-02-02T05:28:17.659Z,0.45
2023-02-02T05:30:56.130Z,0.60
2023-02-02T05:33:25.265Z,0.60
2023-02-02T05:35:56.574Z,0.60
2023-02-02T05:38:30.845Z,0.50
2023-02-02T05:41:01.979Z,0.50
2023-02-02T05:43:30.728Z,0.60
2023-02-02T05:46:02.784Z,0.60
2023-02-02T05:48:35.463Z,0.60
2023-02-02T05:51:15.731Z,0.50
2023-02-02T05:53:46.971Z,0.80
2023-02-02T05:56:23.368Z,0.50
2023-02-02T05:58:56.484Z,0.50
2023-02-02T06:01:29.499Z,0.82
2023-02-02T06:04:15.804Z,0.57
2023-02-02T06:06:46.135Z,0.43
2023-02-02T06:09:15.855Z,0.50
2023-02-02T06:11:48.453Z,0.68
2023-02-02T06:14:21.737Z,0.60
2023-02-02T06:16:55.451Z,0.50
2023-02-02T06:19:47.506Z,0.50
2023-02-02T06:22:35.521Z,0.50
2023-02-02T06:25:12.177Z,0.60
2023-02-02T06:27:44.641Z,0.40
2023-02-02T06:30:14.286Z,0.50
2023-02-02T06:32:44.820Z,0.50
2023-02-02T06:35:16.776Z,0.65
2023-02-02T06:37:46.856Z,0.50
2023-02-02T06:40:19.368Z,0.55
2023-02-02T06:42:46.889Z,0.52
2023-02-02T06:45:16.575Z,0.40
2023-02-02T06:47:48.292Z,0.60
2023-02-02T06:50:24.951Z,0.50
2023-02-02T06:52:56.013Z,0.60
2023-02-02T06:55:26.272Z,0.45
2023-02-02T06:58:01.677Z,0.60
2023-02-02T07:01:07.905Z,0.70
2023-02-02T07:03:36.500Z,0.50
2023-02-02T07:06:15.888Z,0.50
2023-02-02T07:08:46.200Z,0.60
2023-02-02T07:11:24.804Z,0.60
2023-02-02T07:13:53.088Z,0.60
2023-02-02T07:16:26.615Z,0.75
2023-02-02T07:18:55.053Z,0.70
2023-02-02T07:21:30.546Z,0.60
2023-02-02T07:24:00.945Z,0.60
2023-02-02T07:26:31.589Z,0.55
2023-02-02T07:29:03.788Z,0.50
2023-02-02T07:31:36.579Z,0.90
2023-02-02T07:34:10.064Z,0.45
2023-02-02T07:36:43.027Z,0.70
2023-02-02T07:39:12.891Z,0.50
2023-02-02T07:41:49.735Z,0.50
2023-02-02T07:44:26.389Z,0.82
2023-02-02T07:46:56.427Z,0.50
2023-02-02T07:49:27.179Z,0.65
2023-02-02T07:54:51.040Z,0.40
2023-02-02T07:57:24.288Z,0.60
2023-02-02T07:59:55.025Z,0.55
2023-02-02T08:02:25.089Z,0.80
2023-02-02T08:04:58.621Z,0.50
2023-02-02T08:07:35.092Z,0.52
2023-02-02T08:10:05.498Z,0.60
2023-02-02T08:12:35.727Z,0.70
2023-02-02T08:15:13.914Z,0.70
2023-02-02T08:17:50.427Z,0.60
2023-02-02T08:20:21.023Z,0.60
2023-02-02T08:22:49.075Z,0.70
2023-02-02T08:25:21.971Z,0.50
2023-02-02T08:27:52.532Z,0.73
2023-02-02T08:30:38.350Z,0.75
2023-02-02T08:33:11.011Z,0.40
2023-02-02T08:35:47.486Z,0.50
2023-02-02T08:38:23.894Z,0.60
2023-02-02T08:41:00.739Z,0.50
2023-02-02T08:43:31.341Z,0.60
2023-02-02T08:46:13.194Z,0.60
2023-02-02T08:49:28.777Z,0.50
2023-02-02T08:52:02.229Z,0.40
2023-02-02T08:54:35.383Z,0.60
2023-02-02T08:57:05.296Z,0.40
2023-02-02T08:59:32.456Z,0.50
2023-02-02T09:02:03.656Z,0.50
2023-02-02T09:04:30.777Z,0.60
2023-02-02T09:07:02.094Z,0.50
2023-02-02T09:09:32.459Z,0.50
2023-02-02T09:12:06.025Z,0.50
2023-02-02T09:14:56.424Z,0.40
2023-02-02T09:17:30.174Z,0.40
2023-02-02T09:20:00.733Z,0.40
2023-02-02T09:22:32.051Z,0.50
2023-02-02T09:24:59.213Z,0.50
2023-02-02T09:27:36.052Z,0.50
2023-02-02T09:30:07.771Z,0.50
2023-02-02T09:32:45.902Z,0.50
2023-02-02T09:35:20.210Z,0.40
2023-02-02T09:37:47.488Z,0.50
2023-02-02T09:40:22.296Z,0.68
2023-02-02T09:42:57.698Z,0.50
2023-02-02T09:45:30.171Z,0.70
2023-02-02T09:48:23.978Z,0.50
2023-02-02T09:50:59.241Z,0.70
2023-02-02T09:53:36.649Z,0.60
2023-02-02T09:56:28.461Z,0.47
2023-02-02T09:59:18.831Z,0.80
2023-02-02T10:01:48.145Z,0.50
2023-02-02T10:04:19.635Z,0.50
2023-02-02T10:06:49.666Z,0.47
2023-02-02T10:09:20.597Z,0.70
2023-02-02T10:12:05.816Z,0.50
2023-02-02T10:14:46.462Z,0.50
2023-02-02T10:18:01.222Z,0.50
2023-02-02T10:20:59.740Z,0.60
2023-02-02T10:23:27.287Z,0.47
2023-02-02T10:26:11.604Z,0.60
2023-02-02T10:28:53.419Z,1.00
2023-02-02T10:31:32.617Z,0.50
2023-02-02T10:34:20.791Z,0.70
2023-02-02T10:37:05.936Z,0.50
2023-02-02T10:39:41.735Z,0.68
2023-02-02T10:42:15.007Z,0.60
2023-02-02T10:44:53.932Z,1.50
2023-02-02T10:47:24.861Z,0.63
2023-02-02T10:50:01.509Z,0.70
2023-02-02T10:52:35.292Z,0.63
2023-02-02T10:55:07.463Z,0.60
2023-02-02T10:57:38.143Z,0.60
2023-02-02T11:00:10.324Z,0.60
2023-02-02T11:02:41.458Z,0.80
2023-02-02T11:05:47.017Z,1.10
2023-02-02T11:08:22.616Z,0.75
2023-02-02T11:10:54.868Z,0.90
2023-02-02T11:13:28.544Z,1.20
2023-02-02T11:16:13.827Z,0.98
2023-02-02T11:18:47.890Z,1.00
2023-02-02T11:21:24.567Z,0.63
2023-02-02T11:23:54.984Z,0.70
2023-02-02T11:26:29.326Z,0.73
2023-02-02T11:29:01.065Z,0.70
2023-02-02T11:31:34.802Z,0.60
2023-02-02T11:34:18.856Z,0.80
2023-02-02T11:37:04.354Z,0.90
2023-02-02T11:39:40.863Z,0.57
2023-02-02T11:42:24.237Z,0.60
2023-02-02T11:45:00.315Z,0.65
2023-02-02T11:47:31.705Z,0.60
2023-02-02T11:50:08.486Z,0.60
2023-02-02T11:52:36.339Z,0.70
2023-02-02T11:55:16.344Z,0.57
2023-02-02T11:58:06.503Z,0.73
2023-02-02T12:00:33.459Z,0.50
2023-02-02T12:03:26.412Z,0.50
2023-02-02T12:05:58.751Z,0.70
2023-02-02T12:08:28.728Z,0.47
2023-02-02T12:11:01.619Z,0.60
2023-02-02T12:13:37.495Z,0.70
2023-02-02T12:16:12.577Z,0.60
2023-02-02T12:18:57.758Z,0.80
2023-02-02T12:21:30.532Z,0.60
2023-02-02T12:24:06.696Z,1.40
2023-02-02T12:26:43.265Z,0.95
2023-02-02T12:29:34.703Z,0.90
2023-02-02T12:32:18.331Z,1.00
2023-02-02T12:34:48.993Z,1.33
2023-02-02T12:37:29.596Z,1.10
2023-02-02T12:40:22.748Z,0.98
2023-02-02T12:42:56.132Z,0.80
2023-02-02T12:45:41.835Z,0.98
2023-02-02T12:48:27.193Z,0.90
2023-02-02T12:51:03.339Z,1.08
2023-02-02T12:53:36.474Z,1.30
2023-02-02T12:56:24.664Z,0.90
2023-02-02T12:58:57.821Z,1.08
2023-02-02T13:01:43.339Z,1.30
2023-02-02T13:04:22.881Z,1.23
2023-02-02T13:07:28.791Z,1.13
2023-02-02T13:10:02.313Z,1.38
2023-02-02T13:12:50.322Z,1.20
2023-02-02T13:15:24.323Z,1.00
2023-02-02T13:17:59.535Z,1.10
2023-02-02T13:20:38.914Z,0.90
2023-02-02T13:23:21.805Z,1.17
2023-02-02T13:26:09.337Z,0.70
2023-02-02T13:28:49.644Z,0.93
2023-02-02T13:31:32.574Z,1.10
2023-02-02T13:34:11.404Z,1.00
2023-02-02T13:36:44.476Z,0.80
2023-02-02T13:39:15.465Z,0.70
2023-02-02T13:41:45.777Z,0.95
2023-02-02T13:44:20.934Z,1.23
2023-02-02T13:47:11.741Z,1.00
2023-02-02T13:49:45.975Z,0.90
2023-02-02T13:52:29.447Z,0.80
2023-02-02T13:55:17.188Z,1.13
2023-02-02T13:58:04.461Z,1.00
2023-02-02T14:00:35.463Z,1.02
2023-02-02T14:03:35.272Z,0.98
2023-02-02T14:06:18.424Z,1.20
2023-02-02T14:08:51.513Z,1.30
2023-02-02T14:11:25.562Z,1.00
2023-02-02T14:14:12.983Z,1.52
2023-02-02T14:16:44.905Z,2.05
2023-02-02T14:19:16.556Z,1.70
2023-02-02T14:22:04.922Z,2.45
2023-02-02T14:24:40.678Z,2.20
2023-02-02T14:27:37.733Z,2.13
2023-02-02T14:30:18.021Z,2.25
2023-02-02T14:32:51.651Z,2.42
2023-02-02T14:35:29.218Z,2.28
2023-02-02T14:37:59.906Z,2.10
2023-02-02T14:40:43.757Z,1.98
2023-02-02T14:43:55.620Z,1.95
2023-02-02T14:46:25.938Z,1.80
2023-02-02T14:48:58.099Z,1.92
2023-02-02T14:51:33.535Z,1.65
2023-02-02T14:54:06.658Z,2.25
2023-02-02T14:56:39.579Z,2.17
2023-02-02T14:59:19.899Z,1.73
2023-02-02T15:02:07.311Z,1.88
2023-02-02T15:04:35.013Z,1.48
2023-02-02T15:07:21.695Z,2.10
2023-02-02T15:09:50.791Z,1.88
2023-02-02T15:12:40.739Z,2.30
2023-02-02T15:15:20.685Z,2.28
2023-02-02T15:18:00.843Z,1.83
2023-02-02T15:20:38.613Z,2.10
2023-02-02T15:23:23.808Z,1.63
2023-02-02T15:26:17.132Z,1.42
2023-02-02T15:31:54.541Z,2.10
2023-02-02T15:34:28.163Z,2.22
2023-02-02T15:37:04.029Z,1.70
2023-02-02T15:39:42.419Z,1.30
2023-02-02T15:42:41.356Z,1.75
2023-02-02T15:45:29.562Z,1.35
2023-02-02T15:48:03.687Z,1.73
2023-02-02T15:50:33.081Z,2.00
2023-02-02T15:53:03.331Z,1.63
2023-02-02T15:55:34.702Z,1.83
2023-02-02T15:58:07.612Z,1.35
2023-02-02T16:00:44.144Z,1.88
2023-02-02T16:03:22.248Z,1.75
2023-02-02T16:05:59.622Z,1.75
2023-02-02T16:08:41.430Z,1.20
2023-02-02T16:11:19.193Z,2.05
2023-02-02T16:14:10.719Z,1.85
2023-02-02T16:16:46.202Z,1.60
2023-02-02T16:19:27.834Z,1.55
2023-02-02T16:22:08.937Z,1.70
2023-02-02T16:24:40.690Z,1.50
2023-02-02T16:27:11.359Z,1.70
2023-02-02T16:29:50.441Z,1.85
2023-02-02T16:32:30.862Z,1.70
2023-02-02T16:35:05.432Z,1.73
2023-02-02T16:37:34.690Z,1.88
2023-02-02T16:40:22.554Z,1.92
2023-02-02T16:43:07.792Z,1.70
2023-02-02T16:45:41.924Z,2.10
2023-02-02T16:48:35.039Z,2.05
2023-02-02T16:51:25.901Z,1.60
2023-02-02T16:53:59.978Z,1.67
2023-02-02T16:56:30.875Z,1.67
2023-02-02T16:59:09.836Z,1.88
2023-02-02T17:01:45.046Z,1.65
2023-02-02T17:04:25.496Z,2.10
2023-02-02T17:06:53.681Z,2.05
2023-02-02T17:09:40.329Z,1.70
2023-02-02T17:12:32.577Z,1.55
2023-02-02T17:15:24.692Z,1.55
2023-02-02T17:17:55.588Z,1.60
2023-02-02T17:20:25.660Z,1.88
2023-02-02T17:23:00.359Z,2.00
2023-02-02T17:25:30.370Z,2.10
2023-02-02T17:27:59.249Z,2.42
2023-02-02T17:30:29.905Z,1.77
2023-02-02T17:33:03.249Z,1.88
2023-02-02T17:35:47.267Z,2.55
2023-02-02T17:38:36.986Z,2.17
2023-02-02T17:41:09.590Z,2.22
2023-02-02T17:43:38.582Z,1.63
2023-02-02T17:46:09.622Z,2.05
2023-02-02T17:48:52.948Z,1.67
2023-02-02T17:51:23.280Z,1.95
2023-02-02T17:53:55.797Z,2.22
2023-02-02T17:56:22.863Z,2.28
2023-02-02T17:58:53.712Z,2.45
2023-02-02T18:01:23.854Z,2.20
2023-02-02T18:03:56.855Z,2.35
2023-02-02T18:09:54.674Z,2.33
2023-02-02T18:12:28.561Z,2.70
2023-02-02T18:15:02.121Z,2.55
2023-02-02T18:17:30.152Z,2.47
2023-02-02T18:20:04.386Z,2.50
2023-02-02T18:22:33.989Z,2.25
2023-02-02T18:25:01.207Z,2.30
2023-02-02T18:27:31.229Z,1.80
2023-02-02T18:30:03.861Z,2.40
2023-02-02T18:32:43.837Z,2.10
2023-02-02T18:35:13.333Z,2.30
2023-02-02T18:37:44.267Z,2.50
2023-02-02T18:40:21.267Z,2.00
2023-02-02T18:42:56.835Z,2.10
2023-02-02T18:45:39.054Z,2.50
2023-02-02T18:48:09.459Z,2.10
2023-02-02T18:50:39.654Z,2.78
2023-02-02T18:53:11.764Z,2.65
2023-02-02T18:55:42.152Z,2.35
2023-02-02T18:58:14.860Z,2.88
2023-02-02T19:00:42.521Z,2.83
2023-02-02T19:03:15.508Z,2.25
2023-02-02T19:06:00.838Z,2.90
2023-02-02T19:08:33.682Z,3.40
2023-02-02T19:11:08.558Z,2.95
2023-02-02T19:13:41.268Z,3.40
2023-02-02T19:16:25.032Z,3.33
2023-02-02T19:19:01.799Z,3.20
2023-02-02T19:21:30.262Z,4.10
2023-02-02T19:24:02.454Z,4.70
2023-02-02T19:26:30.755Z,5.43
2023-02-02T19:29:00.741Z,6.18
2023-02-02T19:31:31.475Z,6.00
2023-02-02T19:33:59.000Z,7.70
2023-02-02T19:36:30.208Z,6.18
2023-02-02T19:39:02.573Z,6.90
2023-02-02T19:41:34.795Z,6.05
2023-02-02T19:44:07.996Z,6.00
2023-02-02T19:46:42.022Z,5.38
2023-02-02T19:49:16.028Z,6.22
2023-02-02T19:51:48.479Z,5.28
2023-02-02T19:54:22.017Z,5.60
2023-02-02T19:56:53.851Z,5.88
2023-02-02T19:59:27.772Z,6.00
2023-02-02T20:01:57.745Z,6.03
2023-02-02T20:04:24.861Z,5.75
2023-02-02T20:06:59.309Z,5.72
2023-02-02T20:09:32.543Z,5.93
2023-02-02T20:12:04.701Z,5.32
2023-02-02T20:17:44.649Z,4.85
2023-02-02T20:20:27.470Z,4.82
2023-02-02T20:22:56.462Z,4.60
2023-02-02T20:25:26.384Z,4.32
2023-02-02T20:27:59.311Z,3.22
2023-02-02T20:30:28.721Z,3.92
2023-02-02T20:33:00.989Z,4.07
2023-02-02T20:35:27.893Z,3.72
2023-02-02T20:37:56.235Z,3.28
2023-02-02T20:40:28.639Z,2.97
2023-02-02T20:42:59.108Z,2.47
2023-02-02T20:45:29.111Z,2.45
2023-02-02T20:47:58.689Z,1.95
2023-02-02T20:50:30.333Z,2.13
2023-02-02T20:53:00.617Z,3.45
2023-02-02T20:55:33.903Z,3.10
2023-02-02T20:58:04.346Z,2.78
2023-02-02T21:00:36.411Z,2.55
2023-02-02T21:03:05.512Z,2.55
2023-02-02T21:05:38.757Z,2.97
2023-02-02T21:08:08.871Z,2.88
2023-02-02T21:10:40.238Z,3.35
2023-02-02T21:13:23.929Z,3.22
2023-02-02T21:15:54.507Z,2.80
2023-02-02T21:18:27.519Z,3.55
2023-02-02T21:21:01.394Z,3.60
2023-02-02T21:23:29.241Z,3.15
2023-02-02T21:29:12.575Z,2.95
2023-02-02T21:32:03.227Z,2.85
2023-02-02T21:34:36.041Z,3.30
2023-02-02T21:37:08.362Z,3.08
2023-02-02T21:39:37.384Z,3.80
2023-02-02T21:42:17.542Z,2.72
2023-02-02T21:44:53.992Z,2.60
2023-02-02T21:47:24.247Z,3.30
2023-02-02T21:49:54.376Z,3.22
2023-02-02T21:52:24.102Z,3.05
2023-02-02T21:54:54.033Z,3.00
2023-02-02T21:57:38.224Z,3.33
2023-02-02T22:00:26.509Z,3.53
2023-02-02T22:02:57.163Z,2.80
2023-02-02T22:05:30.029Z,3.55
2023-02-02T22:08:07.998Z,3.40
2023-02-02T22:10:43.930Z,3.28
2023-02-02T22:13:21.927Z,3.95
2023-02-02T22:15:55.462Z,3.08
2023-02-02T22:18:26.901Z,2.92
2023-02-02T22:20:57.066Z,2.75
2023-02-02T22:23:34.242Z,2.85
2023-02-02T22:26:01.356Z,2.80
2023-02-02T22:28:54.574Z,3.10
2023-02-02T22:31:23.820Z,3.20
2023-02-02T22:33:50.864Z,2.88
2023-02-02T22:36:27.549Z,2.85
2023-02-02T22:39:00.550Z,2.60
2023-02-02T22:41:37.090Z,3.13
2023-02-02T22:44:04.308Z,2.75
2023-02-02T22:46:31.387Z,3.13
2023-02-02T22:49:03.674Z,3.03
2023-02-02T22:51:30.673Z,2.95
2023-02-02T22:54:00.730Z,3.40
2023-02-02T22:56:30.862Z,2.97
2023-02-02T22:58:58.351Z,2.97
2023-02-02T23:01:25.790Z,2.95
2023-02-02T23:03:59.020Z,2.95
2023-02-02T23:09:42.630Z,2.80
2023-02-02T23:12:13.409Z,2.15
2023-02-02T23:14:43.372Z,2.00
2023-02-02T23:17:13.007Z,2.85
2023-02-02T23:19:42.995Z,2.20
2023-02-02T23:22:13.390Z,1.63
2023-02-02T23:24:41.760Z,2.38
2023-02-02T23:27:08.881Z,1.60
2023-02-02T23:29:39.223Z,2.38
2023-02-02T23:32:07.371Z,2.78
2023-02-02T23:34:34.397Z,2.60
2023-02-02T23:39:45.250Z,2.08
2023-02-02T23:42:15.491Z,2.05
2023-02-02T23:44:45.052Z,3.05
2023-02-02T23:47:12.357Z,2.42
2023-02-02T23:49:40.425Z,1.70
2023-02-02T23:52:08.163Z,2.10
2023-02-02T23:54:39.067Z,1.88
2023-02-02T23:57:13.554Z,1.77
2023-02-02T23:59:44.147Z,2.15
